Time;durP1;ratioP1;P1;durP2;ratioP2;P2;SDS_P1;SDS_P2;PMS_P1;PMS_P2;Temp;Humidity;BMP_temperature;BMP_pressure;BME280_temperature;BME280_humidity;BME280_pressure;Samples;Min_cycle;Max_cycle;Signal;HPM_P1;HPM_P2
2023/04/30 00:00:41;;;;;;;10.90;8.80;;;20.30;63.80;;;;;;5056702;28;43565;-68
2023/04/30 00:03:08;;;;;;;9.30;8.40;;;20.30;64.10;;;;;;5049961;28;43847;-68
2023/04/30 00:05:37;;;;;;;9.80;8.83;;;20.20;64.30;;;;;;5053086;28;43482;-68
2023/04/30 00:08:05;;;;;;;10.23;9.07;;;20.10;64.40;;;;;;5050470;28;43588;-69
2023/04/30 00:10:34;;;;;;;8.90;8.00;;;20.10;64.60;;;;;;5059528;28;43465;-69
2023/04/30 00:13:02;;;;;;;9.33;8.43;;;20.00;64.60;;;;;;5052400;28;43762;-68
2023/04/30 00:15:30;;;;;;;9.43;8.43;;;20.00;64.70;;;;;;5052208;28;43485;-71
2023/04/30 00:17:58;;;;;;;9.13;8.17;;;20.00;64.80;;;;;;5051186;28;43487;-68
2023/04/30 00:20:26;;;;;;;10.03;8.80;;;19.90;64.90;;;;;;5054680;28;43416;-68
2023/04/30 00:22:54;;;;;;;8.80;7.90;;;19.90;65.10;;;;;;5052779;28;45839;-68
2023/04/30 00:25:23;;;;;;;8.57;7.60;;;19.90;65.00;;;;;;5052975;28;43926;-68
2023/04/30 00:27:52;;;;;;;9.33;8.43;;;19.90;65.00;;;;;;5050957;28;43375;-68
2023/04/30 00:30:20;;;;;;;8.33;7.60;;;19.90;65.10;;;;;;5066133;28;43621;-68
2023/04/30 00:32:48;;;;;;;8.70;7.90;;;19.80;65.00;;;;;;5052476;28;43903;-68
2023/04/30 00:35:16;;;;;;;8.70;7.80;;;19.80;65.30;;;;;;5052094;28;43415;-69
2023/04/30 00:37:44;;;;;;;8.43;7.63;;;19.80;65.10;;;;;;5050552;28;43462;-69
2023/04/30 00:40:15;;;;;;;7.67;6.87;;;19.80;65.10;;;;;;5050805;28;43475;-70
2023/04/30 00:42:43;;;;;;;7.50;6.90;;;19.80;65.20;;;;;;5052144;28;43931;-68
2023/04/30 00:45:12;;;;;;;8.37;7.57;;;19.80;65.20;;;;;;5052730;28;43807;-69
2023/04/30 00:47:40;;;;;;;8.03;7.33;;;19.80;65.30;;;;;;5054424;28;43494;-68
2023/04/30 00:50:10;;;;;;;8.70;7.80;;;19.80;65.50;;;;;;5050014;28;43494;-73
2023/04/30 00:52:37;;;;;;;7.50;6.90;;;19.80;65.30;;;;;;5049835;28;43940;-68
2023/04/30 00:55:06;;;;;;;7.93;7.23;;;19.90;65.10;;;;;;5051525;28;43328;-73
2023/04/30 00:57:34;;;;;;;7.60;6.90;;;20.00;64.80;;;;;;5046419;28;43547;-69
2023/04/30 01:00:02;;;;;;;7.50;6.97;;;20.10;64.60;;;;;;5048191;28;44156;-69
2023/04/30 01:02:32;;;;;;;7.30;6.70;;;20.10;64.30;;;;;;5045438;28;43616;-71
2023/04/30 01:05:00;;;;;;;7.20;6.60;;;20.00;64.30;;;;;;5048683;28;43451;-68
2023/04/30 01:07:28;;;;;;;7.20;6.60;;;20.00;64.50;;;;;;5050162;28;43529;-69
2023/04/30 01:09:56;;;;;;;7.60;7.00;;;19.90;64.60;;;;;;5050199;28;43392;-68
2023/04/30 01:12:29;;;;;;;7.67;6.97;;;19.90;64.90;;;;;;5047165;28;45686;-68
2023/04/30 01:15:00;;;;;;;7.67;6.97;;;19.80;65.10;;;;;;5048583;28;44944;-68
2023/04/30 01:17:31;;;;;;;6.83;6.33;;;19.80;65.00;;;;;;5045848;28;43446;-72
2023/04/30 01:20:00;;;;;;;7.10;6.60;;;19.80;65.10;;;;;;5049649;28;44105;-68
2023/04/30 01:22:35;;;;;;;6.67;6.17;;;19.70;65.10;;;;;;5050088;28;43912;-68
2023/04/30 01:25:11;;;;;;;5.87;5.57;;;19.70;65.30;;;;;;5047265;28;44778;-69
2023/04/30 01:28:01;;;;;;;6.00;5.60;;;19.70;65.30;;;;;;5064842;28;43712;-69
2023/04/30 01:30:30;;;;;;;6.63;6.13;;;19.60;65.40;;;;;;5050768;28;43381;-69
2023/04/30 01:32:58;;;;;;;6.77;6.27;;;19.60;65.50;;;;;;5046402;28;45760;-68
2023/04/30 01:35:48;;;;;;;6.40;6.00;;;19.60;65.50;;;;;;5044770;28;44574;-69
2023/04/30 01:38:21;;;;;;;6.77;6.27;;;19.60;65.70;;;;;;5065662;28;43538;-68
2023/04/30 01:40:52;;;;;;;6.67;6.17;;;19.60;65.80;;;;;;5047490;28;43476;-70
2023/04/30 01:43:25;;;;;;;6.63;6.13;;;19.70;65.70;;;;;;5047579;28;43599;-67
2023/04/30 01:46:02;;;;;;;6.33;5.83;;;19.90;65.30;;;;;;5049841;28;44944;-69
2023/04/30 01:48:40;;;;;;;6.27;5.87;;;20.00;64.80;;;;;;5049756;28;43398;-69
2023/04/30 01:51:10;;;;;;;6.27;5.87;;;20.20;64.20;;;;;;5046383;28;43525;-68
2023/04/30 01:53:40;;;;;;;5.83;5.43;;;20.40;63.70;;;;;;5047776;28;45993;-68
2023/04/30 01:56:11;;;;;;;6.07;5.67;;;20.50;63.10;;;;;;5045962;28;45598;-69
2023/04/30 01:58:40;;;;;;;5.53;5.23;;;20.70;62.70;;;;;;5049113;28;43376;-74
2023/04/30 02:01:08;;;;;;;5.63;5.33;;;20.80;62.30;;;;;;5047108;28;43492;-69
2023/04/30 02:03:36;;;;;;;6.03;5.63;;;20.90;62.00;;;;;;5045196;28;45781;-69
2023/04/30 02:06:04;;;;;;;5.57;5.27;;;20.90;61.90;;;;;;5045921;28;44606;-69
2023/04/30 02:08:32;;;;;;;5.50;5.20;;;20.80;62.10;;;;;;5047616;28;43474;-69
2023/04/30 02:11:00;;;;;;;5.70;5.40;;;20.70;62.40;;;;;;5047317;28;43479;-68
2023/04/30 02:13:28;;;;;;;5.87;5.57;;;20.50;62.80;;;;;;5046768;28;46011;-69
2023/04/30 02:15:58;;;;;;;5.37;5.07;;;20.40;63.50;;;;;;5046252;28;44436;-68
2023/04/30 02:18:26;;;;;;;5.60;5.20;;;20.30;63.70;;;;;;5047982;28;43459;-68
2023/04/30 02:20:54;;;;;;;5.13;4.83;;;20.20;63.80;;;;;;5046861;28;43568;-68
2023/04/30 02:23:22;;;;;;;5.23;4.93;;;20.10;63.90;;;;;;5048599;28;43583;-68
2023/04/30 02:25:50;;;;;;;5.07;4.87;;;20.00;64.00;;;;;;5047704;28;43465;-69
2023/04/30 02:28:18;;;;;;;5.63;5.33;;;20.00;64.90;;;;;;5042564;28;44540;-69
2023/04/30 02:30:46;;;;;;;5.33;5.03;;;20.00;65.00;;;;;;5051796;28;43981;-68
2023/04/30 02:33:17;;;;;;;5.60;5.27;;;20.00;64.70;;;;;;5045228;28;43809;-68
2023/04/30 02:35:46;;;;;;;4.73;4.53;;;20.10;64.50;;;;;;5046971;28;44330;-68
2023/04/30 02:38:14;;;;;;;5.00;4.70;;;20.10;64.20;;;;;;5047078;28;43441;-68
2023/04/30 02:40:42;;;;;;;5.40;5.10;;;20.20;64.30;;;;;;5047496;28;43571;-69
2023/04/30 02:43:10;;;;;;;4.73;4.53;;;20.10;64.10;;;;;;5047399;28;43938;-69
2023/04/30 02:45:38;;;;;;;4.90;4.70;;;20.00;64.10;;;;;;5045765;28;43979;-68
2023/04/30 02:48:06;;;;;;;4.70;4.50;;;20.00;64.30;;;;;;5047362;28;43510;-68
2023/04/30 02:50:36;;;;;;;4.53;4.33;;;19.90;65.00;;;;;;5046304;28;43538;-68
2023/04/30 02:53:04;;;;;;;4.60;4.40;;;19.80;65.20;;;;;;5045527;28;43830;-71
2023/04/30 02:55:31;;;;;;;5.30;5.00;;;19.80;65.00;;;;;;5049458;28;43481;-69
2023/04/30 02:57:59;;;;;;;4.80;4.60;;;19.80;65.00;;;;;;5052346;28;43977;-68
2023/04/30 03:00:27;;;;;;;4.90;4.70;;;19.70;64.90;;;;;;5051304;28;45189;-68
2023/04/30 03:02:55;;;;;;;5.10;4.80;;;19.70;65.40;;;;;;5049960;28;46661;-69
2023/04/30 03:05:24;;;;;;;4.53;4.33;;;19.60;65.60;;;;;;5052134;28;44136;-68
2023/04/30 03:07:53;;;;;;;4.23;4.13;;;19.60;65.40;;;;;;5059065;28;43364;-68
2023/04/30 03:10:21;;;;;;;4.70;4.50;;;19.60;65.20;;;;;;5050172;28;43622;-68
2023/04/30 03:12:49;;;;;;;4.80;4.57;;;19.60;65.30;;;;;;5049238;28;46184;-68
2023/04/30 03:15:18;;;;;;;4.70;4.50;;;19.60;65.40;;;;;;5050657;28;44703;-68
2023/04/30 03:17:46;;;;;;;4.70;4.40;;;19.60;65.90;;;;;;5050962;28;43432;-68
2023/04/30 03:20:14;;;;;;;4.87;4.57;;;19.60;65.80;;;;;;5049841;28;43475;-68
2023/04/30 03:22:44;;;;;;;5.93;5.43;;;19.70;65.60;;;;;;5052814;28;43955;-70
2023/04/30 03:25:14;;;;;;;8.70;5.03;;;19.80;65.30;;;;;;5067248;28;44595;-69
2023/04/30 03:27:42;;;;;;;6.00;5.40;;;19.90;65.10;;;;;;5041932;28;43407;-68
2023/04/30 03:30:10;;;;;;;8.27;6.10;;;19.90;65.00;;;;;;5052127;28;43838;-69
2023/04/30 03:32:38;;;;;;;8.73;6.20;;;19.90;64.70;;;;;;5050946;28;45599;-69
2023/04/30 03:35:08;;;;;;;9.30;6.57;;;19.80;65.00;;;;;;5047798;28;43426;-68
2023/04/30 03:37:36;;;;;;;17.17;8.00;;;19.80;64.90;;;;;;5049300;28;43496;-69
2023/04/30 03:40:06;;;;;;;14.77;7.80;;;19.70;65.30;;;;;;5050715;28;44127;-68
2023/04/30 03:42:35;;;;;;;16.40;8.93;;;19.70;65.50;;;;;;5057573;28;45627;-70
2023/04/30 03:45:03;;;;;;;10.87;7.20;;;19.60;65.20;;;;;;5050164;28;45172;-69
2023/04/30 03:47:31;;;;;;;11.47;8.10;;;19.60;65.20;;;;;;5050357;28;43432;-68
2023/04/30 03:50:00;;;;;;;19.57;9.50;;;19.60;65.30;;;;;;5048268;28;43498;-68
2023/04/30 03:52:28;;;;;;;19.73;9.60;;;19.60;65.50;;;;;;5050265;28;43840;-68
2023/04/30 03:54:56;;;;;;;20.10;9.30;;;19.50;65.80;;;;;;5053255;28;43478;-68
2023/04/30 03:57:27;;;;;;;18.97;9.97;;;19.60;65.80;;;;;;5049177;28;43969;-68
2023/04/30 03:59:56;;;;;;;20.53;9.43;;;19.60;65.50;;;;;;5061975;28;43543;-69
2023/04/30 04:02:24;;;;;;;22.87;10.13;;;19.70;65.40;;;;;;5050003;28;44026;-68
2023/04/30 04:04:52;;;;;;;23.60;10.43;;;19.70;65.10;;;;;;5049504;28;45124;-68
2023/04/30 04:07:20;;;;;;;21.07;10.27;;;19.70;65.50;;;;;;5049910;28;43554;-68
2023/04/30 04:09:48;;;;;;;20.47;11.00;;;19.70;65.50;;;;;;5049620;28;43605;-68
2023/04/30 04:12:16;;;;;;;19.33;9.80;;;19.70;65.20;;;;;;5049916;28;43662;-68
2023/04/30 04:14:44;;;;;;;17.93;9.87;;;19.60;65.10;;;;;;5052983;28;44762;-69
2023/04/30 04:17:14;;;;;;;19.33;9.83;;;19.60;65.20;;;;;;5054687;28;43583;-68
2023/04/30 04:19:44;;;;;;;21.03;10.70;;;19.60;65.40;;;;;;5050240;28;43899;-68
2023/04/30 04:22:12;;;;;;;21.70;10.50;;;19.60;65.80;;;;;;5047185;28;44225;-68
2023/04/30 04:24:40;;;;;;;21.90;10.50;;;19.50;65.40;;;;;;5049117;28;44680;-69
2023/04/30 04:27:09;;;;;;;16.40;9.77;;;19.50;65.50;;;;;;5051158;28;43791;-68
2023/04/30 04:29:37;;;;;;;20.83;10.37;;;19.50;65.50;;;;;;5052311;28;43620;-69
2023/04/30 04:32:05;;;;;;;20.00;10.57;;;19.50;65.60;;;;;;5066958;28;46003;-71
2023/04/30 04:34:37;;;;;;;19.73;11.10;;;19.50;65.90;;;;;;5067405;28;44686;-68
2023/04/30 04:37:06;;;;;;;20.10;10.53;;;19.50;65.60;;;;;;5048232;28;43492;-69
2023/04/30 04:39:35;;;;;;;16.77;9.83;;;19.50;65.60;;;;;;5048755;28;43464;-68
2023/04/30 04:42:03;;;;;;;17.40;9.93;;;19.40;65.50;;;;;;5049789;28;45517;-69
2023/04/30 04:44:32;;;;;;;21.07;10.70;;;19.50;65.70;;;;;;5052376;28;44586;-68
2023/04/30 04:47:02;;;;;;;21.87;10.30;;;19.40;65.80;;;;;;5047352;28;43506;-69
2023/04/30 04:49:31;;;;;;;20.90;11.00;;;19.50;65.90;;;;;;5047818;28;43466;-68
2023/04/30 04:52:00;;;;;;;20.87;11.07;;;19.50;65.70;;;;;;5049030;28;46142;-68
2023/04/30 04:54:29;;;;;;;21.13;9.80;;;19.70;65.50;;;;;;5047767;28;44985;-69
2023/04/30 04:56:56;;;;;;;18.43;9.73;;;19.70;65.20;;;;;;5051994;28;43446;-68
2023/04/30 04:59:25;;;;;;;16.80;9.93;;;19.80;64.90;;;;;;5049411;28;43568;-68
2023/04/30 05:01:53;;;;;;;16.60;9.73;;;19.70;64.70;;;;;;5048037;28;46204;-68
2023/04/30 05:04:21;;;;;;;15.73;9.67;;;19.70;64.90;;;;;;5050141;28;44251;-68
2023/04/30 05:06:49;;;;;;;17.00;9.90;;;19.60;65.00;;;;;;5049418;28;43404;-68
2023/04/30 05:09:18;;;;;;;18.10;9.63;;;19.60;65.30;;;;;;5050102;28;43419;-68
2023/04/30 05:11:47;;;;;;;16.33;10.37;;;19.60;65.50;;;;;;5044471;28;44145;-68
2023/04/30 05:14:16;;;;;;;16.63;9.33;;;19.50;65.30;;;;;;5048286;28;43555;-68
2023/04/30 05:16:45;;;;;;;15.03;9.40;;;19.50;65.40;;;;;;5051607;28;43674;-68
2023/04/30 05:19:14;;;;;;;16.10;9.60;;;19.50;65.50;;;;;;5051526;28;43649;-68
2023/04/30 05:21:41;;;;;;;16.67;9.67;;;19.40;65.60;;;;;;5051328;28;46141;-69
2023/04/30 05:24:09;;;;;;;15.67;9.70;;;19.40;65.70;;;;;;5049762;28;43966;-73
2023/04/30 05:26:39;;;;;;;13.23;9.03;;;19.40;65.50;;;;;;5051074;28;43491;-68
2023/04/30 05:29:10;;;;;;;13.50;9.40;;;19.50;65.60;;;;;;5049464;28;43506;-68
2023/04/30 05:31:38;;;;;;;16.23;10.30;;;19.40;65.60;;;;;;5053109;28;43928;-68
2023/04/30 05:34:07;;;;;;;14.80;8.80;;;19.40;65.70;;;;;;5050789;28;43368;-68
2023/04/30 05:36:36;;;;;;;13.83;8.67;;;19.40;66.00;;;;;;5052152;28;43534;-68
2023/04/30 05:39:04;;;;;;;15.60;9.50;;;19.40;65.90;;;;;;5043590;28;43626;-69
2023/04/30 05:41:32;;;;;;;16.50;9.40;;;19.60;65.80;;;;;;5047839;28;45360;-71
2023/04/30 05:44:03;;;;;;;12.83;9.50;;;19.60;65.30;;;;;;5047293;28;43448;-69
2023/04/30 05:46:31;;;;;;;13.87;8.93;;;19.80;65.10;;;;;;5050984;28;43873;-68
2023/04/30 05:48:59;;;;;;;13.80;8.73;;;19.80;64.90;;;;;;5050864;28;43482;-68
2023/04/30 05:51:28;;;;;;;12.00;8.13;;;19.70;64.60;;;;;;5050124;28;43847;-68
2023/04/30 05:53:57;;;;;;;14.60;8.27;;;19.70;64.80;;;;;;5052989;28;43482;-68
2023/04/30 05:56:25;;;;;;;13.87;8.97;;;19.60;65.00;;;;;;5050103;28;44111;-68
2023/04/30 05:58:53;;;;;;;12.90;8.27;;;19.50;65.10;;;;;;5053908;28;43478;-69
2023/04/30 06:01:23;;;;;;;11.60;7.93;;;19.50;65.60;;;;;;5050885;28;45460;-68
2023/04/30 06:03:53;;;;;;;11.20;7.60;;;19.50;65.40;;;;;;5050926;28;44136;-68
2023/04/30 06:06:21;;;;;;;12.00;7.90;;;19.40;65.40;;;;;;5046704;28;43838;-68
2023/04/30 06:08:49;;;;;;;14.33;8.40;;;19.50;65.60;;;;;;5045935;28;43632;-68
2023/04/30 06:11:17;;;;;;;13.70;7.83;;;19.40;65.60;;;;;;5048417;28;46010;-68
2023/04/30 06:13:47;;;;;;;11.30;8.07;;;19.40;65.90;;;;;;5044274;28;45338;-68
2023/04/30 06:16:15;;;;;;;12.67;7.77;;;19.40;65.70;;;;;;5042237;28;43475;-72
2023/04/30 06:18:44;;;;;;;11.20;7.47;;;19.40;65.70;;;;;;5054307;28;43461;-69
2023/04/30 06:21:12;;;;;;;12.33;8.00;;;19.40;65.80;;;;;;5053272;28;43858;-68
2023/04/30 06:23:40;;;;;;;12.63;8.23;;;19.30;65.70;;;;;;5047597;28;44118;-69
2023/04/30 06:26:08;;;;;;;14.17;8.47;;;19.30;66.00;;;;;;5049456;28;43629;-69
2023/04/30 06:28:36;;;;;;;12.87;8.30;;;19.40;66.10;;;;;;5048589;28;43470;-68
2023/04/30 06:31:04;;;;;;;9.77;8.20;;;19.40;65.90;;;;;;5053917;28;43933;-69
2023/04/30 06:33:32;;;;;;;11.63;8.27;;;19.60;66.40;;;;;;5055844;28;43480;-69
2023/04/30 06:36:01;;;;;;;10.10;7.57;;;19.60;65.40;;;;;;5050193;28;43836;-68
2023/04/30 06:38:29;;;;;;;10.90;8.43;;;19.50;65.00;;;;;;5052089;28;43466;-68
2023/04/30 06:40:57;;;;;;;9.70;7.77;;;19.50;65.50;;;;;;5052169;28;46045;-68
2023/04/30 06:43:25;;;;;;;9.83;7.53;;;19.50;65.60;;;;;;5051802;28;43428;-69
2023/04/30 06:45:53;;;;;;;11.27;7.70;;;19.50;65.30;;;;;;5050346;28;43571;-68
2023/04/30 06:48:22;;;;;;;9.20;7.50;;;19.50;65.30;;;;;;5057787;28;43482;-68
2023/04/30 06:50:49;;;;;;;9.37;7.43;;;19.40;65.30;;;;;;5057433;28;43900;-68
2023/04/30 06:53:19;;;;;;;10.27;7.87;;;19.40;65.50;;;;;;5057656;28;43419;-70
2023/04/30 06:55:48;;;;;;;9.03;6.87;;;19.40;65.90;;;;;;5050616;28;43452;-68
2023/04/30 06:58:16;;;;;;;8.83;7.07;;;19.40;65.70;;;;;;5065072;28;43575;-68
2023/04/30 07:00:44;;;;;;;9.20;7.23;;;19.30;65.60;;;;;;5053592;28;44459;-68
2023/04/30 07:03:12;;;;;;;7.47;6.60;;;19.30;65.70;;;;;;5054659;28;44809;-68
2023/04/30 07:05:41;;;;;;;8.67;7.60;;;19.30;65.80;;;;;;5054690;28;43403;-69
2023/04/30 07:08:09;;;;;;;7.47;6.53;;;19.30;66.10;;;;;;5055411;28;43909;-68
2023/04/30 07:10:41;;;;;;;8.27;6.80;;;19.30;66.00;;;;;;5053081;28;43872;-68
2023/04/30 07:13:10;;;;;;;8.00;6.97;;;19.30;65.80;;;;;;5049601;28;44150;-72
2023/04/30 07:15:38;;;;;;;8.13;6.53;;;19.30;65.80;;;;;;5052589;28;44224;-68
2023/04/30 07:18:07;;;;;;;8.87;6.90;;;19.30;65.90;;;;;;5054217;28;43483;-70
2023/04/30 07:20:35;;;;;;;8.30;7.13;;;19.30;66.10;;;;;;5058485;28;44610;-68
2023/04/30 07:23:03;;;;;;;8.97;7.23;;;19.30;66.20;;;;;;5054259;28;45098;-68
2023/04/30 07:25:31;;;;;;;8.97;6.77;;;19.30;66.00;;;;;;5054486;28;43410;-68
2023/04/30 07:28:02;;;;;;;7.83;6.80;;;19.40;65.80;;;;;;5051378;28;43612;-68
2023/04/30 07:30:31;;;;;;;7.40;6.37;;;19.60;65.50;;;;;;5050996;28;45285;-68
2023/04/30 07:32:59;;;;;;;7.40;6.57;;;19.60;65.40;;;;;;5054942;28;43417;-68
2023/04/30 07:35:27;;;;;;;7.20;6.30;;;19.60;65.00;;;;;;5053809;28;43450;-69
2023/04/30 07:37:56;;;;;;;6.73;6.13;;;19.60;65.10;;;;;;5051750;28;43395;-68
2023/04/30 07:40:24;;;;;;;7.00;6.37;;;19.50;65.20;;;;;;5056259;28;43539;-68
2023/04/30 07:43:04;;;;;;;8.90;6.60;;;19.40;65.30;;;;;;5050182;28;44078;-68
2023/04/30 07:45:33;;;;;;;7.83;7.03;;;19.40;65.80;;;;;;5054895;28;43455;-71
2023/04/30 07:48:01;;;;;;;6.70;6.10;;;19.40;65.70;;;;;;5049573;28;43941;-68
2023/04/30 07:50:32;;;;;;;7.33;6.20;;;19.40;65.70;;;;;;5052666;28;43849;-68
2023/04/30 07:53:01;;;;;;;6.23;5.67;;;19.30;65.60;;;;;;5055622;28;43404;-68
2023/04/30 07:55:30;;;;;;;7.67;6.47;;;19.30;65.80;;;;;;5048730;28;43688;-68
2023/04/30 07:57:58;;;;;;;6.63;5.87;;;19.30;66.10;;;;;;5052027;28;44090;-68
2023/04/30 08:00:28;;;;;;;6.23;5.63;;;19.30;66.10;;;;;;5055751;28;43757;-68
2023/04/30 08:02:56;;;;;;;6.17;5.57;;;19.30;65.80;;;;;;5053831;28;43578;-68
2023/04/30 08:05:24;;;;;;;6.63;6.03;;;19.30;65.90;;;;;;5048401;28;43436;-68
2023/04/30 08:07:52;;;;;;;6.43;5.83;;;19.20;65.90;;;;;;5054165;28;43463;-68
2023/04/30 08:10:20;;;;;;;6.20;5.70;;;19.20;65.90;;;;;;5050349;28;43940;-68
2023/04/30 08:12:48;;;;;;;6.53;5.83;;;19.20;66.20;;;;;;5050188;28;43478;-68
2023/04/30 08:15:16;;;;;;;6.40;5.80;;;19.30;66.20;;;;;;5058821;28;43432;-68
2023/04/30 08:17:45;;;;;;;5.93;5.43;;;19.40;66.10;;;;;;5061565;28;43502;-68
2023/04/30 08:20:13;;;;;;;7.20;6.00;;;19.50;65.80;;;;;;5054493;28;43803;-68
2023/04/30 08:22:41;;;;;;;5.77;5.30;;;19.60;65.50;;;;;;5062362;28;43367;-68
2023/04/30 08:25:10;;;;;;;6.23;5.70;;;19.60;65.30;;;;;;5049986;28;43467;-70
2023/04/30 08:27:41;;;;;;;6.03;5.43;;;19.60;65.10;;;;;;5045818;28;43478;-69
2023/04/30 08:30:09;;;;;;;6.47;5.80;;;19.50;65.10;;;;;;5050276;28;43975;-69
2023/04/30 08:32:37;;;;;;;5.97;5.43;;;19.40;65.30;;;;;;5056933;28;43437;-68
2023/04/30 08:35:09;;;;;;;5.67;5.27;;;19.40;65.60;;;;;;5054491;28;43456;-69
2023/04/30 08:37:37;;;;;;;5.67;5.20;;;19.30;65.80;;;;;;5047348;28;43467;-70
2023/04/30 08:40:08;;;;;;;5.23;4.80;;;19.30;65.80;;;;;;5047140;28;43750;-68
2023/04/30 08:42:36;;;;;;;5.77;5.27;;;19.30;65.70;;;;;;5049170;28;45300;-68
2023/04/30 08:45:05;;;;;;;5.40;5.00;;;19.30;65.80;;;;;;5046641;28;43572;-68
2023/04/30 08:47:34;;;;;;;6.43;5.50;;;19.30;66.70;;;;;;5052086;28;43743;-68
2023/04/30 08:50:04;;;;;;;5.67;5.20;;;19.20;66.20;;;;;;5053881;28;43571;-68
2023/04/30 08:52:34;;;;;;;5.50;5.00;;;19.20;65.90;;;;;;5052829;28;43427;-68
2023/04/30 08:55:01;;;;;;;5.10;4.73;;;19.20;66.00;;;;;;5055156;28;43401;-68
2023/04/30 08:57:29;;;;;;;5.40;5.00;;;19.20;66.00;;;;;;5058925;28;43599;-68
2023/04/30 08:59:57;;;;;;;5.33;4.83;;;19.20;66.10;;;;;;5062796;28;43908;-68
2023/04/30 09:02:25;;;;;;;5.53;5.10;;;19.20;66.40;;;;;;5066880;28;43438;-68
2023/04/30 09:04:53;;;;;;;4.90;4.60;;;19.20;66.40;;;;;;5053407;28;43547;-68
2023/04/30 09:07:22;;;;;;;6.13;5.33;;;19.30;66.30;;;;;;5057148;28;43580;-68
2023/04/30 09:09:52;;;;;;;5.20;4.83;;;19.40;66.10;;;;;;5050801;28;43877;-69
2023/04/30 09:12:21;;;;;;;5.20;4.80;;;19.40;65.80;;;;;;5051940;28;43510;-68
2023/04/30 09:15:00;;;;;;;5.33;4.93;;;19.40;65.40;;;;;;5051174;28;43488;-68
2023/04/30 09:17:28;;;;;;;4.83;4.43;;;19.40;65.90;;;;;;5051869;28;44007;-68
2023/04/30 09:19:58;;;;;;;4.53;4.23;;;19.40;65.90;;;;;;5049121;28;45477;-68
2023/04/30 09:22:26;;;;;;;4.83;4.43;;;19.40;65.60;;;;;;5051377;28;43450;-69
2023/04/30 09:24:58;;;;;;;4.93;4.63;;;19.30;65.60;;;;;;5048512;28;43449;-68
2023/04/30 09:27:26;;;;;;;4.63;4.33;;;19.30;65.80;;;;;;5070851;28;44086;-68
2023/04/30 09:29:55;;;;;;;5.20;4.80;;;19.30;66.00;;;;;;5050987;28;45596;-68
2023/04/30 09:32:24;;;;;;;6.93;4.73;;;19.20;66.20;;;;;;5046723;28;43450;-70
2023/04/30 09:34:52;;;;;;;5.10;4.70;;;19.20;66.00;;;;;;5050133;28;43530;-68
2023/04/30 09:37:20;;;;;;;4.60;4.30;;;19.30;66.10;;;;;;5054040;28;43774;-68
2023/04/30 09:39:51;;;;;;;4.10;3.90;;;19.20;66.20;;;;;;5058247;28;43611;-68
2023/04/30 09:42:21;;;;;;;4.70;4.40;;;19.20;66.20;;;;;;5060467;28;43839;-68
2023/04/30 09:44:49;;;;;;;5.20;4.90;;;19.20;66.60;;;;;;5052349;28;43493;-69
2023/04/30 09:47:18;;;;;;;4.77;4.33;;;19.20;66.60;;;;;;5051425;28;43471;-68
2023/04/30 09:49:50;;;;;;;4.60;4.30;;;19.30;66.30;;;;;;5057411;28;46325;-72
2023/04/30 09:52:20;;;;;;;4.50;4.20;;;19.40;66.10;;;;;;5052300;28;44698;-69
2023/04/30 09:54:48;;;;;;;4.87;4.57;;;19.40;65.70;;;;;;5052036;28;43346;-68
2023/04/30 09:57:16;;;;;;;5.47;4.97;;;19.30;65.80;;;;;;5056625;28;43610;-68
2023/04/30 09:59:46;;;;;;;4.63;4.30;;;19.30;66.10;;;;;;5047936;28;44113;-68
2023/04/30 10:02:15;;;;;;;4.90;4.43;;;19.30;66.00;;;;;;5047951;28;43390;-70
2023/04/30 10:04:44;;;;;;;4.30;4.00;;;19.30;65.90;;;;;;5049974;28;43426;-70
2023/04/30 10:07:14;;;;;;;4.00;3.73;;;19.30;66.00;;;;;;5054773;28;44104;-68
2023/04/30 10:09:48;;;;;;;4.47;4.17;;;19.20;66.00;;;;;;5052739;28;45073;-68
2023/04/30 10:12:16;;;;;;;4.43;4.13;;;19.20;66.30;;;;;;5053638;28;43407;-68
2023/04/30 10:14:51;;;;;;;3.83;3.63;;;19.20;66.20;;;;;;5058082;28;43486;-68
2023/04/30 10:17:21;;;;;;;4.47;4.17;;;19.20;66.20;;;;;;5050764;28;43914;-68
2023/04/30 10:19:50;;;;;;;4.30;4.00;;;19.20;66.20;;;;;;5059661;28;44124;-68
2023/04/30 10:22:18;;;;;;;4.13;3.83;;;19.20;66.30;;;;;;5056606;28;44991;-68
2023/04/30 10:24:46;;;;;;;4.43;4.23;;;19.20;66.50;;;;;;5067954;28;43386;-68
2023/04/30 10:27:13;;;;;;;4.17;3.77;;;19.20;66.50;;;;;;5066076;28;43489;-68
2023/04/30 10:29:41;;;;;;;3.60;3.40;;;19.30;66.30;;;;;;5061061;28;43801;-68
2023/04/30 10:32:11;;;;;;;3.97;3.67;;;19.40;66.00;;;;;;5061433;28;43430;-69
2023/04/30 10:34:45;;;;;;;3.97;3.67;;;19.50;65.80;;;;;;5055295;28;43375;-73
2023/04/30 10:37:18;;;;;;;3.63;3.43;;;19.50;65.50;;;;;;5052270;28;43444;-68
2023/04/30 10:39:48;;;;;;;3.77;3.57;;;19.50;65.30;;;;;;5057401;28;44017;-68
2023/04/30 10:42:16;;;;;;;4.00;3.80;;;19.40;65.50;;;;;;5054988;28;43461;-68
2023/04/30 10:44:47;;;;;;;3.80;3.60;;;19.30;65.60;;;;;;5058746;28;43471;-68
2023/04/30 10:47:18;;;;;;;3.90;3.60;;;19.30;65.80;;;;;;5052859;28;43725;-68
2023/04/30 10:49:47;;;;;;;3.60;3.40;;;19.30;66.20;;;;;;5052095;28;44113;-68
2023/04/30 10:52:15;;;;;;;4.00;3.80;;;19.20;66.00;;;;;;5065040;28;43312;-68
2023/04/30 10:54:49;;;;;;;3.60;3.40;;;19.30;66.10;;;;;;5058637;28;44589;-68
2023/04/30 10:57:18;;;;;;;3.87;3.60;;;19.20;66.10;;;;;;5050910;28;43387;-68
2023/04/30 10:59:52;;;;;;;3.90;3.70;;;19.20;66.20;;;;;;5045484;28;43850;-70
2023/04/30 11:02:21;;;;;;;3.50;3.30;;;19.20;66.40;;;;;;5056731;28;44958;-68
2023/04/30 11:05:08;;;;;;;3.50;3.30;;;19.20;66.50;;;;;;5058526;28;43442;-68
2023/04/30 11:07:37;;;;;;;3.70;3.50;;;19.30;66.30;;;;;;5050377;28;43398;-67
2023/04/30 11:10:09;;;;;;;3.63;3.43;;;19.30;65.90;;;;;;5049414;28;44950;-69
2023/04/30 11:12:38;;;;;;;3.30;3.10;;;19.30;65.80;;;;;;5057635;28;43483;-68
2023/04/30 11:15:07;;;;;;;3.30;3.20;;;19.30;65.90;;;;;;5060837;28;43502;-68
2023/04/30 11:17:37;;;;;;;3.40;3.30;;;19.30;66.20;;;;;;5051473;28;43969;-70
2023/04/30 11:20:06;;;;;;;3.33;3.13;;;19.30;66.00;;;;;;5061437;28;43656;-68
2023/04/30 11:22:35;;;;;;;3.07;2.87;;;19.30;66.00;;;;;;5064987;28;45101;-69
2023/04/30 11:25:05;;;;;;;3.20;3.00;;;19.20;66.00;;;;;;5056197;28;43500;-68
2023/04/30 11:27:33;;;;;;;3.50;3.30;;;19.20;66.10;;;;;;5061422;28;43512;-70
2023/04/30 11:30:02;;;;;;;3.27;3.10;;;19.20;66.20;;;;;;5057764;28;44081;-69
2023/04/30 11:32:32;;;;;;;3.23;3.10;;;19.20;66.30;;;;;;5054926;28;43450;-68
2023/04/30 11:35:03;;;;;;;3.20;3.10;;;19.20;66.10;;;;;;5067674;28;43407;-68
2023/04/30 11:37:31;;;;;;;3.37;3.17;;;19.20;66.20;;;;;;5061202;28;43792;-68
2023/04/30 11:40:03;;;;;;;3.33;3.13;;;19.20;66.20;;;;;;5053582;28;46082;-68
2023/04/30 11:42:33;;;;;;;3.30;3.17;;;19.20;66.40;;;;;;5059348;28;43481;-68
2023/04/30 11:45:06;;;;;;;3.00;2.90;;;19.10;66.50;;;;;;5056028;28;43370;-68
2023/04/30 11:47:41;;;;;;;2.83;2.73;;;19.20;66.40;;;;;;5057246;28;43337;-68
2023/04/30 11:50:11;;;;;;;3.03;2.93;;;19.30;66.20;;;;;;5064380;28;43794;-68
2023/04/30 11:52:39;;;;;;;3.13;3.03;;;19.40;65.90;;;;;;5066233;28;43406;-68
2023/04/30 11:55:17;;;;;;;2.90;2.80;;;19.40;65.60;;;;;;5055828;28;43454;-68
2023/04/30 11:57:47;;;;;;;2.70;2.60;;;19.40;65.30;;;;;;5057613;28;43439;-68
2023/04/30 12:00:16;;;;;;;2.87;2.77;;;19.40;65.50;;;;;;5056525;28;44041;-68
2023/04/30 12:02:48;;;;;;;2.70;2.60;;;19.30;65.60;;;;;;5054450;28;45805;-68
2023/04/30 12:05:20;;;;;;;3.20;3.00;;;19.30;65.80;;;;;;5051646;28;43419;-68
2023/04/30 12:07:49;;;;;;;2.90;2.80;;;19.20;66.20;;;;;;5063380;28;43513;-68
2023/04/30 12:10:19;;;;;;;2.70;2.50;;;19.20;66.10;;;;;;5052201;28;45124;-69
2023/04/30 12:12:48;;;;;;;3.10;3.00;;;19.20;66.10;;;;;;5047970;28;43458;-68
2023/04/30 12:15:22;;;;;;;2.77;2.67;;;19.20;66.20;;;;;;5060355;28;43754;-68
2023/04/30 12:17:49;;;;;;;2.60;2.50;;;19.10;66.20;;;;;;5054191;28;44161;-68
2023/04/30 12:20:20;;;;;;;3.03;2.77;;;19.10;66.60;;;;;;5056385;28;43889;-69
2023/04/30 12:22:48;;;;;;;3.10;2.80;;;19.10;66.50;;;;;;5048567;28;43419;-68
2023/04/30 12:25:17;;;;;;;2.50;2.40;;;19.10;66.30;;;;;;5055913;28;43399;-69
2023/04/30 12:27:46;;;;;;;2.47;2.37;;;19.10;66.40;;;;;;5054476;28;43499;-68
2023/04/30 12:30:14;;;;;;;2.80;2.70;;;19.10;66.50;;;;;;5055205;28;43945;-68
2023/04/30 12:32:43;;;;;;;2.77;2.63;;;19.10;66.60;;;;;;5057465;28;44703;-68
2023/04/30 12:35:14;;;;;;;2.87;2.70;;;19.10;66.90;;;;;;5068202;28;43437;-69
2023/04/30 12:37:47;;;;;;;3.10;2.83;;;19.10;66.80;;;;;;5060638;28;43450;-68
2023/04/30 12:40:15;;;;;;;3.33;2.80;;;19.20;66.60;;;;;;5053898;28;45593;-68
2023/04/30 12:42:44;;;;;;;3.17;3.03;;;19.30;66.30;;;;;;5063479;28;43341;-68
2023/04/30 12:45:12;;;;;;;2.60;2.50;;;19.40;66.00;;;;;;5060325;28;43341;-69
2023/04/30 12:47:40;;;;;;;2.70;2.60;;;19.40;65.80;;;;;;5061236;28;43926;-72
2023/04/30 12:50:12;;;;;;;2.60;2.50;;;19.40;65.60;;;;;;5060964;28;46005;-68
2023/04/30 12:52:40;;;;;;;2.53;2.33;;;19.30;65.70;;;;;;5059584;28;43485;-73